»·PEaware :: N65415 KSNA-L52

N65415 :: KSNA-L52

FLIGHT INFORMATION

Flight Status: Arrived
Operator: Privately registered:
United States
More flights under this callsign
Pilot: Stephane C. (508)
Aircraft: CESSNA 172 SKYHAWK
(C172)
More flights by this aircraft type
Origin: KSNA John Wayne-Orange Co
United States
Destination: L52 Oceano Co
United States
More flights between these airports :: More routes between these airports
Route: +
File this flight plan on PilotEdge
Remarks:
Altitude:
(Current/Filed)
0ft
Speed:
(Current/Filed)
0kts
Departed: 12-Jan-18 08:25 AM
Arrived: 12-Jan-18 10:04 AM
Distance/Time
Traveled:
161nm/1:39
Distance/Time
To Go:
Arrived

Flight Plot

Page will automatically refresh every two minutes.

Flight plan parsing failed; only flown route is shown


Map Options




Map Legend


Flown Route
Filed Route
Departure Airport
Arrival Airport
Navaid (VOR, NDB)
Fix

Horizontal Profiles

Position Reports

Time Latitude Longitude Heading Altitude Ground
Speed
12-Jan-18 08:21 33.668905 -117.875672 206 60ft 0kts
12-Jan-18 08:22 33.668905 -117.875672 206 60ft 0kts
12-Jan-18 08:23 33.668905 -117.875672 206 60ft 0kts
12-Jan-18 08:24 33.668691 -117.875301 112 60ft 0kts
12-Jan-18 08:25 33.670718 -117.873481 27 60ft 17kts
12-Jan-18 08:26 33.675054 -117.870733 28 60ft 16kts
12-Jan-18 08:27 33.676807 -117.869146 223 60ft 0kts
12-Jan-18 08:28 33.676773 -117.869263 274 60ft 3kts
12-Jan-18 08:29 33.679835 -117.867887 24 60ft 17kts
12-Jan-18 08:30 33.680913 -117.865792 115 60ft 3kts
12-Jan-18 08:31 33.673208 -117.870431 207 167ft 78kts
12-Jan-18 08:32 33.659505 -117.889291 249 938ft 83kts
12-Jan-18 08:33 33.651474 -117.915471 251 1718ft 84kts
12-Jan-18 08:34 33.644460 -117.942923 252 2371ft 95kts
12-Jan-18 08:35 33.645823 -117.978052 296 2502ft 119kts
12-Jan-18 08:36 33.658483 -118.014152 293 2492ft 118kts
12-Jan-18 08:37 33.670963 -118.050552 292 2468ft 117kts
12-Jan-18 08:38 33.682450 -118.087286 291 2451ft 117kts
12-Jan-18 08:39 33.690921 -118.125013 285 2444ft 118kts
12-Jan-18 08:40 33.697191 -118.163463 282 2444ft 118kts
12-Jan-18 08:41 33.715966 -118.193822 323 2493ft 118kts
12-Jan-18 08:42 33.742529 -118.215962 325 2495ft 116kts
12-Jan-18 08:43 33.767711 -118.240324 321 2546ft 116kts
12-Jan-18 08:44 33.791645 -118.263585 327 2533ft 116kts
12-Jan-18 08:45 33.818843 -118.284700 330 2499ft 119kts
12-Jan-18 08:46 33.845903 -118.306325 320 2507ft 116kts
12-Jan-18 08:47 33.871482 -118.330654 324 2474ft 116kts
12-Jan-18 08:48 33.896814 -118.354323 322 2455ft 117kts
12-Jan-18 08:49 33.922223 -118.378255 322 2470ft 116kts
12-Jan-18 08:50 33.947609 -118.401988 323 2489ft 115kts
12-Jan-18 08:51 33.973178 -118.425410 322 2493ft 115kts
12-Jan-18 08:52 33.996305 -118.451091 312 2681ft 114kts
12-Jan-18 08:53 34.017158 -118.477785 314 3247ft 105kts
12-Jan-18 08:54 34.035615 -118.501992 313 3942ft 88kts
12-Jan-18 08:55 34.051239 -118.522018 317 4698ft 79kts
12-Jan-18 08:56 34.065525 -118.542334 310 5374ft 79kts
12-Jan-18 08:57 34.078580 -118.563255 310 6036ft 77kts
12-Jan-18 08:58 34.091644 -118.584989 311 6487ft 93kts
12-Jan-18 08:59 34.112650 -118.607196 335 6501ft 110kts
12-Jan-18 09:00 34.133442 -118.633827 310 6523ft 115kts
12-Jan-18 09:01 34.149322 -118.659167 311 6554ft 114kts
12-Jan-18 09:02 34.169317 -118.689525 313 6544ft 115kts
12-Jan-18 09:03 34.191540 -118.716703 311 6581ft 113kts
12-Jan-18 09:04 34.209477 -118.748682 309 6496ft 111kts
12-Jan-18 09:05 34.228047 -118.776959 314 6494ft 106kts
12-Jan-18 09:06 34.234635 -118.811641 303 6512ft 105kts
12-Jan-18 09:07 34.256386 -118.833455 317 6604ft 102kts
12-Jan-18 09:08 34.276922 -118.858571 318 6566ft 106kts
12-Jan-18 09:09 34.297337 -118.882941 317 6578ft 105kts
12-Jan-18 09:10 34.315640 -118.910088 294 6613ft 106kts
12-Jan-18 09:11 34.320779 -118.946406 283 6527ft 115kts
12-Jan-18 09:12 34.325841 -118.983920 286 6479ft 112kts
12-Jan-18 09:13 34.330874 -119.020975 282 6422ft 112kts
12-Jan-18 09:14 34.336294 -119.057579 289 6434ft 108kts
12-Jan-18 09:15 34.343617 -119.092478 288 6494ft 108kts
12-Jan-18 09:16 34.350514 -119.128005 289 6521ft 107kts
12-Jan-18 09:17 34.358140 -119.162768 290 6554ft 107kts
12-Jan-18 09:18 34.366456 -119.197828 291 6541ft 109kts
12-Jan-18 09:19 34.374526 -119.233395 288 6498ft 110kts
12-Jan-18 09:20 34.382813 -119.268883 293 6500ft 107kts
12-Jan-18 09:21 34.391006 -119.303977 288 6493ft 109kts
12-Jan-18 09:22 34.399368 -119.339089 291 6493ft 109kts
12-Jan-18 09:23 34.406659 -119.374650 286 6502ft 109kts
12-Jan-18 09:24 34.412853 -119.410501 283 6517ft 109kts
12-Jan-18 09:25 34.416194 -119.447362 283 6509ft 109kts
12-Jan-18 09:26 34.420776 -119.483585 285 6537ft 109kts
12-Jan-18 09:27 34.426814 -119.520879 285 6575ft 114kts
12-Jan-18 09:28 34.434274 -119.558254 291 6664ft 113kts
12-Jan-18 09:29 34.444040 -119.596418 292 6514ft 122kts
12-Jan-18 09:30 34.456049 -119.634244 296 6443ft 118kts
12-Jan-18 09:31 34.468344 -119.669697 296 6455ft 117kts
12-Jan-18 09:32 34.482130 -119.705099 299 6475ft 116kts
12-Jan-18 09:33 34.495891 -119.740520 300 6504ft 115kts
12-Jan-18 09:34 34.509738 -119.775310 297 6533ft 115kts
12-Jan-18 09:35 34.523341 -119.810631 299 6554ft 115kts
12-Jan-18 09:36 34.538826 -119.844751 301 6573ft 115kts
12-Jan-18 09:37 34.554940 -119.878318 305 6577ft 115kts
12-Jan-18 09:38 34.569880 -119.912913 296 6578ft 116kts
12-Jan-18 09:39 34.581067 -119.949782 289 6577ft 118kts
12-Jan-18 09:40 34.585782 -119.989461 277 6569ft 120kts
12-Jan-18 09:41 34.588465 -120.029591 287 6550ft 119kts
12-Jan-18 09:42 34.596908 -120.068505 294 6523ft 118kts
12-Jan-18 09:43 34.609348 -120.104917 305 6527ft 115kts
12-Jan-18 09:44 34.626430 -120.137855 305 6532ft 115kts
12-Jan-18 09:45 34.644490 -120.170106 309 6527ft 115kts
12-Jan-18 09:46 34.664061 -120.200996 312 6520ft 115kts
12-Jan-18 09:47 34.688290 -120.225638 340 6478ft 116kts
12-Jan-18 09:48 34.715525 -120.245765 326 6379ft 120kts
12-Jan-18 09:49 34.740872 -120.271970 315 6095ft 118kts
12-Jan-18 09:50 34.759282 -120.306631 305 5730ft 124kts
12-Jan-18 09:51 34.780379 -120.339340 313 5368ft 123kts
12-Jan-18 09:52 34.803241 -120.370238 318 4991ft 123kts
12-Jan-18 09:53 34.828755 -120.397035 325 4658ft 120kts
12-Jan-18 09:54 34.854680 -120.421790 325 4408ft 117kts
12-Jan-18 09:55 34.882225 -120.444530 327 4020ft 119kts
12-Jan-18 09:56 34.909313 -120.467896 325 3670ft 119kts
12-Jan-18 09:57 34.935892 -120.491988 324 3368ft 118kts
12-Jan-18 09:58 34.962645 -120.515377 325 3104ft 118kts
12-Jan-18 09:59 34.989451 -120.536161 328 3010ft 115kts
12-Jan-18 10:00 35.014165 -120.561731 310 2782ft 118kts
12-Jan-18 10:01 35.031036 -120.597240 299 2340ft 126kts
12-Jan-18 10:02 35.047994 -120.634030 306 1818ft 123kts
12-Jan-18 10:03 35.070459 -120.659288 10 1496ft 106kts
12-Jan-18 10:04 35.091011 -120.637297 57 1384ft 95kts
12-Jan-18 10:05 35.085118 -120.612040 125 1081ft 85kts
12-Jan-18 10:06 35.072852 -120.594095 134 1132ft 81kts
12-Jan-18 10:07 35.082391 -120.586672 307 919ft 69kts
12-Jan-18 10:08 35.090369 -120.601473 305 561ft 55kts
12-Jan-18 10:09 35.098242 -120.616197 307 92ft 49kts
12-Jan-18 10:10 35.101923 -120.622209 29 18ft 6kts
12-Jan-18 10:11 35.102284 -120.622648 212 18ft 0kts
12-Jan-18 10:12 35.102284 -120.622648 212 18ft 0kts

Navigation Log

Ident Type
Flight plan parsing failed, navigation log unavailable